createdAt,value
2022-10-11T00:02:02.029Z,101480.44
2022-10-11T00:04:28.443Z,101488.69
2022-10-11T00:06:54.864Z,101485.38
2022-10-11T00:09:22.673Z,101490.81
2022-10-11T00:11:49.083Z,101497.50
2022-10-11T00:14:15.564Z,101492.16
2022-10-11T00:16:42.081Z,101495.69
2022-10-11T00:19:08.563Z,101500.13
2022-10-11T00:21:35.175Z,101497.81
2022-10-11T00:24:01.604Z,101507.78
2022-10-11T00:26:29.431Z,101511.59
2022-10-11T00:28:55.929Z,101511.69
2022-10-11T00:31:22.593Z,101508.38
2022-10-11T00:33:49.035Z,101514.59
2022-10-11T00:36:15.918Z,101516.56
2022-10-11T00:38:42.562Z,101515.22
2022-10-11T00:41:09.058Z,101518.38
2022-10-11T00:43:37.043Z,101517.97
2022-10-11T00:46:07.451Z,101515.06
2022-10-11T00:48:40.269Z,101523.25
2022-10-11T00:51:13.956Z,101516.81
2022-10-11T00:53:41.735Z,101525.19
2022-10-11T00:56:14.646Z,101530.16
2022-10-11T00:58:42.816Z,101531.94
2022-10-11T01:01:09.346Z,101522.00
2022-10-11T01:03:37.821Z,101526.50
2022-10-11T01:06:04.711Z,101525.31
2022-10-11T01:08:32.446Z,101522.06
2022-10-11T01:10:59.139Z,101537.63
2022-10-11T01:13:41.112Z,101536.38
2022-10-11T01:16:15.145Z,101533.25
2022-10-11T01:18:48.656Z,101532.88
2022-10-11T01:21:26.152Z,101532.66
2022-10-11T01:24:15.155Z,101532.13
2022-10-11T01:27:29.254Z,101541.44
2022-10-11T01:30:05.048Z,101536.63
2022-10-11T01:32:38.430Z,101534.91
2022-10-11T01:35:14.619Z,101539.22
2022-10-11T01:37:43.961Z,101534.81
2022-10-11T01:40:17.617Z,101548.88
2022-10-11T01:42:44.000Z,101552.72
2022-10-11T01:45:14.943Z,101549.72
2022-10-11T01:47:42.950Z,101554.09
2022-10-11T01:50:33.839Z,101563.47
2022-10-11T01:53:05.605Z,101555.78
2022-10-11T01:55:44.141Z,101561.44
2022-10-11T01:58:19.381Z,101565.06
2022-10-11T02:00:56.564Z,101567.84
2022-10-11T02:03:33.619Z,101574.81
2022-10-11T02:06:08.782Z,101571.28
2022-10-11T02:08:44.217Z,101571.41
2022-10-11T02:11:19.858Z,101567.66
2022-10-11T02:13:51.577Z,101566.91
2022-10-11T02:16:23.316Z,101572.19
2022-10-11T02:18:54.348Z,101576.56
2022-10-11T02:21:23.029Z,101574.53
2022-10-11T02:23:55.338Z,101580.59
2022-10-11T02:26:23.751Z,101583.03
2022-10-11T02:28:54.379Z,101581.59
2022-10-11T02:31:22.666Z,101585.91
2022-10-11T02:33:58.640Z,101583.56
2022-10-11T02:36:30.268Z,101591.81
2022-10-11T02:39:05.243Z,101588.88
2022-10-11T02:41:37.213Z,101584.41
2022-10-11T02:44:08.402Z,101587.56
2022-10-11T02:46:37.402Z,101588.88
2022-10-11T02:49:07.247Z,101586.00
2022-10-11T02:51:34.042Z,101589.22
2022-10-11T02:54:00.637Z,101584.91
2022-10-11T02:56:27.076Z,101587.75
2022-10-11T02:58:53.534Z,101585.44
2022-10-11T03:01:19.988Z,101589.22
2022-10-11T03:03:46.456Z,101586.91
2022-10-11T03:06:14.235Z,101590.94
2022-10-11T03:08:40.673Z,101598.53
2022-10-11T03:11:07.574Z,101596.25
2022-10-11T03:13:34.017Z,101595.41
2022-10-11T03:16:03.580Z,101604.38
2022-10-11T03:18:30.372Z,101605.03
2022-10-11T03:20:56.841Z,101615.38
2022-10-11T03:23:24.614Z,101608.72
2022-10-11T03:25:52.260Z,101618.88
2022-10-11T03:28:19.315Z,101620.31
2022-10-11T03:30:47.230Z,101626.50
2022-10-11T03:33:14.176Z,101629.13
2022-10-11T03:35:40.764Z,101629.16
2022-10-11T03:38:11.108Z,101631.25
2022-10-11T03:40:41.268Z,101634.38
2022-10-11T03:43:07.674Z,101634.56
2022-10-11T03:45:34.469Z,101636.81
2022-10-11T03:48:00.910Z,101633.56
2022-10-11T03:50:27.449Z,101643.94
2022-10-11T03:52:54.055Z,101643.25
2022-10-11T03:55:20.437Z,101644.91
2022-10-11T03:57:48.322Z,101652.72
2022-10-11T04:00:15.037Z,101654.38
2022-10-11T04:02:41.438Z,101661.06
2022-10-11T04:05:08.454Z,101657.78
2022-10-11T04:07:35.004Z,101664.34
2022-10-11T04:10:01.439Z,101669.94
2022-10-11T04:12:28.067Z,101663.03
2022-10-11T04:14:55.837Z,101665.50
2022-10-11T04:17:22.293Z,101671.13
2022-10-11T04:19:48.941Z,101676.16
2022-10-11T04:22:15.365Z,101682.72
2022-10-11T04:24:41.788Z,101682.31
2022-10-11T04:27:08.207Z,101687.13
2022-10-11T04:29:34.594Z,101687.66
2022-10-11T04:32:02.456Z,101685.53
2022-10-11T04:34:28.993Z,101694.53
2022-10-11T04:36:55.489Z,101694.38
2022-10-11T04:39:21.932Z,101685.38
2022-10-11T04:41:48.327Z,101694.59
2022-10-11T04:44:14.731Z,101697.09
2022-10-11T04:46:41.139Z,101702.34
2022-10-11T04:49:09.071Z,101706.06
2022-10-11T04:51:35.492Z,101699.75
2022-10-11T04:54:01.949Z,101705.91
2022-10-11T04:56:28.354Z,101706.88
2022-10-11T04:58:54.776Z,101710.47
2022-10-11T05:01:21.226Z,101711.56
2022-10-11T05:03:48.462Z,101704.94
2022-10-11T05:06:16.244Z,101720.63
2022-10-11T05:08:42.684Z,101720.47
2022-10-11T05:11:14.009Z,101723.34
2022-10-11T05:13:42.724Z,101726.97
2022-10-11T05:16:11.443Z,101735.78
2022-10-11T05:18:39.100Z,101734.56
2022-10-11T05:21:07.601Z,101726.97
2022-10-11T05:23:37.043Z,101730.19
2022-10-11T05:26:04.409Z,101732.91
2022-10-11T05:28:31.440Z,101737.84
2022-10-11T05:30:58.007Z,101735.16
2022-10-11T05:33:26.089Z,101739.00
2022-10-11T05:35:52.687Z,101742.03
2022-10-11T05:38:19.284Z,101741.50
2022-10-11T05:40:47.101Z,101740.63
2022-10-11T05:43:13.549Z,101744.81
2022-10-11T05:45:41.945Z,101752.00
2022-10-11T05:48:09.277Z,101753.91
2022-10-11T05:50:36.903Z,101758.31
2022-10-11T05:53:05.132Z,101766.50
2022-10-11T05:55:35.672Z,101761.09
2022-10-11T05:58:03.794Z,101764.72
2022-10-11T06:00:30.240Z,101763.03
2022-10-11T06:02:57.024Z,101769.88
2022-10-11T06:05:23.460Z,101771.78
2022-10-11T06:07:49.968Z,101779.63
2022-10-11T06:10:16.615Z,101780.66
2022-10-11T06:12:43.180Z,101782.41
2022-10-11T06:15:11.618Z,101785.44
2022-10-11T06:17:38.164Z,101789.00
2022-10-11T06:20:05.484Z,101793.75
2022-10-11T06:22:31.883Z,101800.94
2022-10-11T06:24:58.323Z,101797.28
2022-10-11T06:27:24.853Z,101801.50
2022-10-11T06:29:51.288Z,101808.22
2022-10-11T06:32:19.088Z,101806.53
2022-10-11T06:34:45.548Z,101810.97
2022-10-11T06:37:11.976Z,101820.75
2022-10-11T06:39:38.641Z,101814.03
2022-10-11T06:42:05.360Z,101821.47
2022-10-11T06:44:33.060Z,101818.44
2022-10-11T06:46:59.497Z,101819.47
2022-10-11T06:49:27.280Z,101822.13
2022-10-11T06:51:53.690Z,101826.22
2022-10-11T06:54:20.365Z,101826.25
2022-10-11T06:56:46.760Z,101840.09
2022-10-11T06:59:13.238Z,101834.03
2022-10-11T07:01:39.738Z,101844.34
2022-10-11T07:04:06.214Z,101843.22
2022-10-11T07:06:37.318Z,101846.28
2022-10-11T07:09:04.244Z,101848.16
2022-10-11T07:11:30.839Z,101844.28
2022-10-11T07:13:59.468Z,101850.00
2022-10-11T07:16:27.303Z,101854.31
2022-10-11T07:18:59.870Z,101856.84
2022-10-11T07:21:28.862Z,101868.00
2022-10-11T07:23:56.646Z,101867.22
2022-10-11T07:26:23.254Z,101867.72
2022-10-11T07:28:49.843Z,101862.28
2022-10-11T07:31:18.561Z,101873.25
2022-10-11T07:33:45.272Z,101870.25
2022-10-11T07:36:12.646Z,101868.59
2022-10-11T07:38:39.741Z,101876.03
2022-10-11T07:41:08.335Z,101872.22
2022-10-11T07:43:35.425Z,101867.16
2022-10-11T07:46:02.322Z,101873.19
2022-10-11T07:48:29.438Z,101876.28
2022-10-11T07:51:02.140Z,101870.25
2022-10-11T07:53:28.593Z,101867.16
2022-10-11T07:55:55.033Z,101866.53
2022-10-11T07:58:22.750Z,101870.69
2022-10-11T08:00:52.934Z,101877.00
2022-10-11T08:03:19.457Z,101884.06
2022-10-11T08:05:45.883Z,101876.84
2022-10-11T08:08:12.326Z,101873.63
2022-10-11T08:10:39.556Z,101884.88
2022-10-11T08:13:07.401Z,101881.28
2022-10-11T08:15:35.138Z,101880.91
2022-10-11T08:18:01.567Z,101885.19
2022-10-11T08:20:28.057Z,101882.91
2022-10-11T08:22:55.123Z,101883.78
2022-10-11T08:25:21.616Z,101886.22
2022-10-11T08:27:48.333Z,101885.06
2022-10-11T08:30:14.957Z,101893.28
2022-10-11T08:32:42.728Z,101885.19
2022-10-11T08:35:09.234Z,101891.00
2022-10-11T08:37:35.699Z,101884.66
2022-10-11T08:40:02.357Z,101896.75
2022-10-11T08:42:34.357Z,101897.28
2022-10-11T08:45:14.528Z,101903.81
2022-10-11T08:47:44.620Z,101906.66
2022-10-11T08:50:18.196Z,101900.34
2022-10-11T08:52:48.794Z,101899.78
2022-10-11T08:55:21.099Z,101901.72
2022-10-11T08:57:52.314Z,101901.69
2022-10-11T09:00:31.264Z,101903.03
2022-10-11T09:03:09.750Z,101907.97
2022-10-11T09:06:03.340Z,101902.31
2022-10-11T09:08:39.013Z,101906.91
2022-10-11T09:11:13.411Z,101901.63
2022-10-11T09:13:56.927Z,101910.25
2022-10-11T09:16:34.893Z,101905.63
2022-10-11T09:19:33.520Z,101910.94
2022-10-11T09:22:06.864Z,101916.22
2022-10-11T09:24:46.254Z,101911.91
2022-10-11T09:27:50.408Z,101919.34
2022-10-11T09:30:18.758Z,101916.00
2022-10-11T09:32:47.888Z,101916.59
2022-10-11T09:35:17.577Z,101918.97
2022-10-11T09:37:52.332Z,101918.13
2022-10-11T09:40:38.374Z,101914.47
2022-10-11T09:43:04.816Z,101918.34
2022-10-11T09:45:31.450Z,101920.72
2022-10-11T09:48:00.325Z,101916.75
2022-10-11T09:50:30.074Z,101916.22
2022-10-11T09:52:59.042Z,101917.25
2022-10-11T09:55:34.487Z,101922.81
2022-10-11T09:58:01.417Z,101921.22
2022-10-11T10:00:29.619Z,101915.78
2022-10-11T10:02:57.401Z,101914.09
2022-10-11T10:05:25.787Z,101916.06
2022-10-11T10:08:06.665Z,101916.47
2022-10-11T10:10:37.334Z,101921.06
2022-10-11T10:13:06.163Z,101922.00
2022-10-11T10:15:34.744Z,101923.66
2022-10-11T10:18:02.298Z,101920.84
2022-10-11T10:20:30.783Z,101928.22
2022-10-11T10:22:58.318Z,101927.28
2022-10-11T10:25:32.808Z,101933.59
2022-10-11T10:28:01.353Z,101926.69
2022-10-11T10:30:31.827Z,101925.72
2022-10-11T10:33:05.573Z,101931.69
2022-10-11T10:35:36.141Z,101920.94
2022-10-11T10:38:12.275Z,101931.53
2022-10-11T10:40:47.155Z,101929.91
2022-10-11T10:43:16.137Z,101925.81
2022-10-11T10:46:17.825Z,101928.41
2022-10-11T10:51:47.749Z,101933.34
2022-10-11T10:54:24.589Z,101927.38
2022-10-11T10:56:57.099Z,101929.06
2022-10-11T10:59:43.413Z,101919.53
2022-10-11T11:02:39.050Z,101929.38
2022-10-11T11:05:13.048Z,101934.03
2022-10-11T11:07:45.925Z,101929.91
2022-10-11T11:10:17.188Z,101926.56
2022-10-11T11:12:53.494Z,101925.19
2022-10-11T11:15:32.111Z,101928.22
2022-10-11T11:18:16.628Z,101931.94
2022-10-11T11:20:54.731Z,101929.34
2022-10-11T11:23:26.487Z,101928.00
2022-10-11T11:26:02.673Z,101934.34
2022-10-11T11:28:53.260Z,101925.94
2022-10-11T11:31:35.418Z,101922.94
2022-10-11T11:34:11.375Z,101925.16
2022-10-11T11:36:42.137Z,101931.31
2022-10-11T11:39:16.495Z,101929.78
2022-10-11T11:41:47.952Z,101932.75
2022-10-11T11:44:26.445Z,101929.94
2022-10-11T11:47:00.859Z,101928.69
2022-10-11T11:49:31.667Z,101919.84
2022-10-11T11:51:59.687Z,101930.66
2022-10-11T11:54:36.835Z,101920.97
2022-10-11T11:57:09.620Z,101923.34
2022-10-11T11:59:44.632Z,101922.63
2022-10-11T12:02:32.503Z,101918.97
2022-10-11T12:05:00.021Z,101923.22
2022-10-11T12:07:28.534Z,101920.53
2022-10-11T12:10:17.029Z,101919.81
2022-10-11T12:12:43.790Z,101914.63
2022-10-11T12:15:24.718Z,101912.56
2022-10-11T12:18:12.651Z,101914.66
2022-10-11T12:20:40.434Z,101912.97
2022-10-11T12:23:44.388Z,101910.16
2022-10-11T12:26:41.981Z,101908.06
2022-10-11T12:29:41.696Z,101902.84
2022-10-11T12:32:47.714Z,101906.13
2022-10-11T12:35:39.267Z,101905.69
2022-10-11T12:38:15.071Z,101908.63
2022-10-11T12:40:43.096Z,101908.72
2022-10-11T12:43:34.998Z,101904.28
2022-10-11T12:46:37.826Z,101909.81
2022-10-11T12:49:19.376Z,101903.47
2022-10-11T12:51:54.259Z,101909.66
2022-10-11T12:54:47.028Z,101896.47
2022-10-11T12:57:46.105Z,101899.66
2022-10-11T13:00:19.779Z,101900.66
2022-10-11T13:02:48.261Z,101893.66
2022-10-11T13:05:23.252Z,101893.47
2022-10-11T13:07:52.614Z,101895.22
2022-10-11T13:10:24.390Z,101890.09
2022-10-11T13:12:52.974Z,101886.72
2022-10-11T13:15:21.854Z,101887.41
2022-10-11T13:17:48.315Z,101891.25
2022-10-11T13:20:19.689Z,101888.06
2022-10-11T13:22:48.306Z,101886.00
2022-10-11T13:25:18.576Z,101889.50
2022-10-11T13:27:45.480Z,101885.06
2022-10-11T13:30:18.064Z,101899.06
2022-10-11T13:32:45.203Z,101886.38
2022-10-11T13:35:20.971Z,101893.34
2022-10-11T13:37:50.453Z,101883.06
2022-10-11T13:40:20.978Z,101890.34
2022-10-11T13:42:48.966Z,101895.56
2022-10-11T13:45:18.510Z,101890.16
2022-10-11T13:47:46.988Z,101884.28
2022-10-11T13:50:21.455Z,101887.06
2022-10-11T13:52:52.898Z,101884.88
2022-10-11T13:55:29.963Z,101887.78
2022-10-11T13:57:58.163Z,101880.91
2022-10-11T14:00:29.325Z,101882.94
2022-10-11T14:02:59.573Z,101873.00
2022-10-11T14:05:30.168Z,101886.13
2022-10-11T14:07:58.386Z,101871.34
2022-10-11T14:10:26.618Z,101878.13
2022-10-11T14:13:02.306Z,101869.41
2022-10-11T14:15:31.236Z,101871.59
2022-10-11T14:17:58.143Z,101878.41
2022-10-11T14:20:33.406Z,101889.75
2022-10-11T14:22:59.913Z,101880.28
2022-10-11T14:25:27.830Z,101874.19
2022-10-11T14:27:54.241Z,101877.28
2022-10-11T14:30:26.170Z,101879.16
2022-10-11T14:32:59.016Z,101873.63
2022-10-11T14:35:27.731Z,101877.75
2022-10-11T14:37:54.664Z,101878.63
2022-10-11T14:40:25.486Z,101870.53
2022-10-11T14:42:53.316Z,101882.28
2022-10-11T14:45:19.904Z,101880.25
2022-10-11T14:47:46.725Z,101874.69
2022-10-11T14:50:26.157Z,101875.41
2022-10-11T14:52:52.856Z,101879.38
2022-10-11T14:55:19.292Z,101880.91
2022-10-11T14:57:45.757Z,101875.97
2022-10-11T15:00:17.899Z,101881.22
2022-10-11T15:02:44.333Z,101875.81
2022-10-11T15:05:10.800Z,101877.66
2022-10-11T15:07:37.296Z,101877.31
2022-10-11T15:10:11.240Z,101871.16
2022-10-11T15:12:37.804Z,101876.94
2022-10-11T15:15:04.656Z,101875.22
2022-10-11T15:17:32.449Z,101871.03
2022-10-11T15:19:58.956Z,101870.16
2022-10-11T15:22:25.380Z,101872.25
2022-10-11T15:24:51.999Z,101870.16
2022-10-11T15:27:21.580Z,101866.38
2022-10-11T15:29:47.997Z,101865.44
2022-10-11T15:32:14.415Z,101864.06
2022-10-11T15:34:42.260Z,101869.34
2022-10-11T15:37:08.928Z,101865.81
2022-10-11T15:39:35.311Z,101863.97
2022-10-11T15:42:01.723Z,101869.00
2022-10-11T15:44:28.172Z,101867.34
2022-10-11T15:46:54.606Z,101874.66
2022-10-11T15:49:21.076Z,101869.69
2022-10-11T15:51:49.039Z,101875.75
2022-10-11T15:54:15.545Z,101866.63
2022-10-11T15:56:42.028Z,101875.34
2022-10-11T15:59:09.211Z,101872.81
2022-10-11T16:01:35.831Z,101872.81
2022-10-11T16:04:02.367Z,101870.00
2022-10-11T16:06:28.850Z,101879.38
2022-10-11T16:08:56.614Z,101878.84
2022-10-11T16:11:23.015Z,101882.53
2022-10-11T16:13:49.407Z,101883.78
2022-10-11T16:16:15.823Z,101883.59
2022-10-11T16:18:42.357Z,101887.91
2022-10-11T16:21:11.155Z,101886.31
2022-10-11T16:23:37.893Z,101887.59
2022-10-11T16:26:08.790Z,101891.75
2022-10-11T16:28:35.782Z,101894.88
2022-10-11T16:31:06.502Z,101886.41
2022-10-11T16:33:32.923Z,101894.81
2022-10-11T16:35:59.336Z,101888.66
2022-10-11T16:38:25.951Z,101893.31
2022-10-11T16:40:52.368Z,101900.31
2022-10-11T16:43:20.155Z,101900.03
2022-10-11T16:45:46.565Z,101895.25
2022-10-11T16:48:12.984Z,101893.94
2022-10-11T16:50:39.890Z,101899.25
2022-10-11T16:53:06.374Z,101894.19
2022-10-11T16:55:32.823Z,101890.41
2022-10-11T16:57:59.401Z,101892.91
2022-10-11T17:00:27.719Z,101894.88
2022-10-11T17:02:54.251Z,101895.97
2022-10-11T17:05:20.956Z,101893.22
2022-10-11T17:07:47.445Z,101889.16
2022-10-11T17:10:13.856Z,101898.44
2022-10-11T17:12:40.306Z,101898.75
2022-10-11T17:15:10.374Z,101897.22
2022-10-11T17:17:38.135Z,101906.75
2022-10-11T17:20:05.339Z,101895.47
2022-10-11T17:22:31.751Z,101894.59
2022-10-11T17:24:58.165Z,101899.69
2022-10-11T17:27:24.614Z,101893.28
2022-10-11T17:29:51.063Z,101898.50
2022-10-11T17:32:17.582Z,101891.75
2022-10-11T17:34:45.326Z,101889.00
2022-10-11T17:37:11.794Z,101891.25
2022-10-11T17:39:38.268Z,101894.78
2022-10-11T17:42:04.944Z,101887.72
2022-10-11T17:44:31.517Z,101885.88
2022-10-11T17:46:57.963Z,101890.59
2022-10-11T17:49:24.379Z,101887.03
2022-10-11T17:51:52.119Z,101887.91
2022-10-11T17:54:18.544Z,101887.78
2022-10-11T17:56:44.966Z,101888.66
2022-10-11T17:59:15.904Z,101889.78
2022-10-11T18:01:42.837Z,101888.97
2022-10-11T18:04:09.473Z,101885.56
2022-10-11T18:06:38.950Z,101889.69
2022-10-11T18:09:07.004Z,101896.00
2022-10-11T18:11:33.525Z,101888.13
2022-10-11T18:14:00.094Z,101887.44
2022-10-11T18:16:29.426Z,101892.31
2022-10-11T18:18:56.300Z,101888.44
2022-10-11T18:21:23.571Z,101903.81
2022-10-11T18:23:50.040Z,101892.97
2022-10-11T18:26:19.616Z,101899.38
2022-10-11T18:28:46.534Z,101895.50
2022-10-11T18:31:15.937Z,101901.34
2022-10-11T18:33:43.871Z,101897.69
2022-10-11T18:36:10.378Z,101888.81
2022-10-11T18:38:36.823Z,101893.50
2022-10-11T18:41:05.079Z,101900.22
2022-10-11T18:43:33.238Z,101900.50
2022-10-11T18:46:04.185Z,101891.59
2022-10-11T18:48:30.730Z,101885.22
2022-10-11T18:51:01.922Z,101891.88
2022-10-11T18:53:28.416Z,101890.78
2022-10-11T18:55:57.888Z,101891.31
2022-10-11T18:58:24.398Z,101884.09
2022-10-11T19:00:52.307Z,101886.03
2022-10-11T19:03:18.808Z,101887.69
2022-10-11T19:05:45.197Z,101884.94
2022-10-11T19:08:11.644Z,101879.09
2022-10-11T19:10:38.065Z,101878.25
2022-10-11T19:13:04.480Z,101876.88
2022-10-11T19:15:30.902Z,101884.59
2022-10-11T19:17:58.672Z,101881.28
2022-10-11T19:20:25.084Z,101894.66
2022-10-11T19:22:51.492Z,101884.88
2022-10-11T19:25:17.981Z,101890.19
2022-10-11T19:27:44.387Z,101885.50
2022-10-11T19:30:11.453Z,101882.97
2022-10-11T19:32:37.859Z,101886.31
2022-10-11T19:35:07.296Z,101887.44
2022-10-11T19:37:33.991Z,101894.91
2022-10-11T19:40:00.546Z,101880.19
2022-10-11T19:42:26.955Z,101884.34
2022-10-11T19:44:53.369Z,101881.88
2022-10-11T19:47:19.760Z,101882.72
2022-10-11T19:49:46.221Z,101885.50
2022-10-11T19:52:13.943Z,101884.63
2022-10-11T19:54:40.498Z,101885.72
2022-10-11T19:57:07.238Z,101889.06
2022-10-11T19:59:33.634Z,101879.63
2022-10-11T20:02:00.096Z,101878.53
2022-10-11T20:04:51.493Z,101886.56
2022-10-11T20:07:14.376Z,101886.31
2022-10-11T20:09:40.877Z,101886.31
2022-10-11T20:12:07.845Z,101885.47
2022-10-11T20:14:34.304Z,101884.91
2022-10-11T20:17:00.753Z,101882.13
2022-10-11T20:19:31.051Z,101877.69
2022-10-11T20:21:58.144Z,101880.69
2022-10-11T20:24:25.913Z,101879.56
2022-10-11T20:26:52.317Z,101877.41
2022-10-11T20:29:18.921Z,101880.19
2022-10-11T20:31:45.346Z,101885.19
2022-10-11T20:34:11.968Z,101883.44
2022-10-11T20:36:38.591Z,101887.94
2022-10-11T20:39:05.727Z,101885.72
2022-10-11T20:41:35.577Z,101884.50
2022-10-11T20:44:02.942Z,101884.28
2022-10-11T20:46:31.135Z,101876.94
2022-10-11T20:49:01.834Z,101881.44
2022-10-11T20:51:29.646Z,101882.25
2022-10-11T20:53:56.091Z,101881.41
2022-10-11T20:56:22.805Z,101883.28
2022-10-11T20:58:52.622Z,101877.25
2022-10-11T21:01:20.919Z,101887.34
2022-10-11T21:03:47.536Z,101887.53
2022-10-11T21:06:14.055Z,101889.94
2022-10-11T21:08:40.711Z,101885.09
2022-10-11T21:11:08.666Z,101883.53
2022-10-11T21:13:35.617Z,101884.41
2022-10-11T21:16:07.949Z,101879.66
2022-10-11T21:18:34.649Z,101879.22
2022-10-11T21:21:05.355Z,101880.34
2022-10-11T21:23:31.755Z,101878.75
2022-10-11T21:26:00.303Z,101885.59
2022-10-11T21:28:26.761Z,101885.09
2022-10-11T21:30:53.248Z,101884.78
2022-10-11T21:33:21.024Z,101881.31
2022-10-11T21:35:47.490Z,101886.97
2022-10-11T21:38:14.057Z,101885.00
2022-10-11T21:40:40.650Z,101884.91
2022-10-11T21:43:07.226Z,101887.94
2022-10-11T21:45:36.675Z,101885.16
2022-10-11T21:48:03.328Z,101876.59
2022-10-11T21:50:31.114Z,101883.16
2022-10-11T21:52:57.771Z,101888.91
2022-10-11T21:55:24.265Z,101881.78
2022-10-11T21:57:50.791Z,101880.88
2022-10-11T22:00:17.863Z,101878.84
2022-10-11T22:02:44.476Z,101883.03
2022-10-11T22:05:10.876Z,101885.78
2022-10-11T22:07:38.675Z,101876.38
2022-10-11T22:10:05.735Z,101876.97
2022-10-11T22:12:32.156Z,101872.44
2022-10-11T22:14:58.707Z,101877.91
2022-10-11T22:17:25.181Z,101882.69
2022-10-11T22:19:51.589Z,101876.25
2022-10-11T22:22:17.999Z,101881.47
2022-10-11T22:24:45.721Z,101870.66
2022-10-11T22:27:12.128Z,101877.09
2022-10-11T22:29:38.605Z,101880.19
2022-10-11T22:32:05.180Z,101874.47
2022-10-11T22:34:31.923Z,101880.28
2022-10-11T22:36:58.387Z,101884.59
2022-10-11T22:39:24.852Z,101877.63
2022-10-11T22:41:54.222Z,101879.94
2022-10-11T22:44:20.764Z,101874.34
2022-10-11T22:46:47.156Z,101875.50
2022-10-11T22:49:13.571Z,101885.91
2022-10-11T22:51:40.048Z,101878.47
2022-10-11T22:54:06.456Z,101878.88
2022-10-11T22:56:32.859Z,101877.72
2022-10-11T22:59:00.603Z,101869.84
2022-10-11T23:01:27.073Z,101871.41
2022-10-11T23:03:53.557Z,101869.66
2022-10-11T23:06:20.455Z,101877.75
2022-10-11T23:08:47.116Z,101870.75
2022-10-11T23:11:13.703Z,101866.69
2022-10-11T23:13:40.136Z,101867.38
2022-10-11T23:16:09.595Z,101867.13
2022-10-11T23:18:36.613Z,101871.59
2022-10-11T23:21:03.987Z,101872.06
2022-10-11T23:23:30.675Z,101876.28
2022-10-11T23:26:01.683Z,101880.09
2022-10-11T23:28:28.189Z,101873.44
2022-10-11T23:30:54.641Z,101871.72
2022-10-11T23:33:22.378Z,101878.88
2022-10-11T23:35:49.048Z,101881.19
2022-10-11T23:38:15.630Z,101872.19
2022-10-11T23:40:42.239Z,101882.31
2022-10-11T23:43:08.639Z,101883.81
2022-10-11T23:45:35.020Z,101894.72
2022-10-11T23:48:01.503Z,101891.31
2022-10-11T23:50:29.254Z,101897.28
2022-10-11T23:52:55.626Z,101892.81
2022-10-11T23:55:22.044Z,101895.97
2022-10-11T23:57:48.448Z,101896.13
